Buffalo, WY (82834)

2:34 AM MDT on March 28, 2017 (GMT -0600)
Buffalo | | Change Station
Active Advisory: Special Statement

Elev 4708 ft 44.34 °N, 106.70 °W | Updated 5 seconds ago

Overcast
Overcast
43.3 °F
Feels Like 43 °F
N
0.0
Wind Variable Wind from NNW
Gusts 0.0 mph

Today
High -- | Low -- °F
--% Chance of Precip.
Yesterday
High -- | Low -- °F
Precip. -- in
Pressure 29.89 in
Visibility 10.0 miles
Clouds Overcast 7000 ft
Windchill 43 °F
Dew Point 38 °F
Humidity 80%
Rainfall 0.00 in
Snow Depth Not available.
6:54 AM 7:29 PM
New Moon, 0% visible
METAR KBYG 280753Z AUTO 28005KT 10SM OVC070 07/01 A2995 RMK AO2 SLP121 T00720011
Pressure 29.89 in
Visibility 10.0 miles
Clouds Overcast 7000 ft
Windchill 43 °F
Dew Point 38 °F
Humidity 80%
Rainfall 0.00 in
Snow Depth Not available.
6:54 AM 7:29 PM
New Moon, 0% visible
METAR KBYG 280753Z AUTO 28005KT 10SM OVC070 07/01 A2995 RMK AO2 SLP121 T00720011

Get Your Daily Forecast Email!

Thanks for signing up!

Be on the lookout for a verification email in your inbox.

You'll start receiving severe weather alerts in your inbox..

×

10-Day Weather Forecast

Almanac

Astronomy

Mar. 28, 2017 Rise Set
Actual Time
Civil Twilight
Nautical Twilight
Astronomical Twilight
Moon
Length of Visible Light
Length of Day
Tomorrow will be .
, % of the Moon is Illuminated

Today's Extremes

State Highs State Lows

Community

WunderPhotos

Upload Photos

1,962,540 photos uploaded!

WunderBlog® & News

Nearby

Air Quality

  Air Quality AQ Index Pollutant
Not available.

Snow Depth

Station Depth Elevation

Earthquake Activity

City Distance Mag. Time & Date
Minimum magnitude displayed is 2.5.

Earthquake Activity

City Distance Mag. Time & Date
Minimum magnitude displayed is 2.5.

Coastal Water Temperatures

Place Temperature

Stations

Nearby Weather Stations

Station Location Temp. Windchill Dew Point Humidity Wind Precip. Elev Updated Type
                   

Watches & Warnings

Special Statement
Issued: 1:45 PM MDT Mar. 27, 2017 – National Weather Service

The next storm system will spread rain showers across the area
late this afternoon and evening. Cooler air will move behind a
cold front later tonight and may change the rain over to rain snow
mix or all wet snow late tonight and Tuesday morning. A trace to
2 inches of snow will be possible over the lower elevations,
mainly on grassy areas. Casper Mountain could see from 3 to 6
inches of snow. The precipitation should end Tuesday night.



145 PM MDT Mon Mar 27 2017

The next storm system will spread rain showers across the area
late this afternoon and evening. Cooler air will move behind a
cold front later tonight and may change the rain over to rain snow
mix or all wet snow late tonight and Tuesday morning. A trace to
2 inches of snow will be possible over the lower elevations,
mainly on grassy areas. Casper Mountain could see from 3 to 6
inches of snow. The precipitation should end Tuesday night.